Back to Top

Language: 

My Weather Underground Personal Weather Station Historical Data with Graphs...

Delerius Weather Station Historical Data
Daily Summary for June 8, 2017 Units:  English    Metric   Both
« Previous Day
Next Day »
Daily Weekly Monthly Yearly Custom
  High: Low: Average:
Temperature: 67.5 °F 54.0 °F 59.6 °F
Dew Point: 58.4 °F 50.8 °F 54.7 °F
Humidity: 94 % 62 % 85 %
Wind Speed: 19.0 mph 0.0 mph 9.2 mph
Wind Gust: 33.0 mph - -
Wind:- - SSW
Pressure: 29.75 in 29.57 in -
Precipitation: 0.05 in    
Historical Graphs
 
 
Tabular Data for June 8, 2017
Time Temperature Dew Point Pressure Wind Wind Speed Wind Gust Humidity Rainfall Rate (Hourly) solar Conditions
00:03 54.0 °F 50.8 °F 29.75 in South 3.0 mph 8.0 mph 89 % 0.00 in 0 W/m2
00:08 54.0 °F 51.1 °F 29.74 in South 4.0 mph 13.0 mph 90 % 0.00 in 0 W/m2
00:13 54.0 °F 51.1 °F 29.75 in SSW 5.0 mph 13.0 mph 90 % 0.00 in 0 W/m2
00:18 54.0 °F 51.1 °F 29.74 in SSW 5.0 mph 12.0 mph 90 % 0.00 in 0 W/m2
00:23 54.0 °F 51.1 °F 29.74 in SSW 5.0 mph 11.0 mph 90 % 0.00 in 0 W/m2
00:28 54.0 °F 51.4 °F 29.74 in SSW 3.0 mph 9.0 mph 91 % 0.00 in 0 W/m2
00:33 54.0 °F 51.4 °F 29.74 in SW 3.0 mph 9.0 mph 91 % 0.00 in 0 W/m2
00:38 54.0 °F 51.4 °F 29.74 in SSW 3.0 mph 9.0 mph 91 % 0.00 in 0 W/m2
00:43 54.0 °F 51.4 °F 29.74 in SW 1.0 mph 6.0 mph 91 % 0.00 in 0 W/m2
00:48 54.0 °F 51.4 °F 29.74 in SSW 2.0 mph 7.0 mph 91 % 0.00 in 0 W/m2
00:53 54.1 °F 51.6 °F 29.74 in SSW 3.0 mph 9.0 mph 91 % 0.00 in 0 W/m2
00:58 54.1 °F 51.6 °F 29.74 in SSW 5.0 mph 10.0 mph 91 % 0.00 in 0 W/m2
01:03 54.1 °F 51.6 °F 29.74 in SW 5.0 mph 10.0 mph 91 % 0.00 in 0 W/m2
01:08 54.1 °F 51.9 °F 29.73 in SSW 5.0 mph 12.0 mph 92 % 0.00 in 0 W/m2
01:13 54.3 °F 52.0 °F 29.73 in SSW 6.0 mph 12.0 mph 92 % 0.00 in 0 W/m2
01:18 54.3 °F 52.0 °F 29.73 in SSW 5.0 mph 10.0 mph 92 % 0.00 in 0 W/m2
01:23 54.3 °F 52.0 °F 29.73 in SSW 4.0 mph 10.0 mph 92 % 0.00 in 0 W/m2
01:28 54.3 °F 52.0 °F 29.73 in SSW 3.0 mph 7.0 mph 92 % 0.00 in 0 W/m2
01:33 54.3 °F 52.0 °F 29.73 in SSW 5.0 mph 11.0 mph 92 % 0.00 in 0 W/m2
01:38 54.7 °F 52.4 °F 29.73 in SW 7.0 mph 11.0 mph 92 % 0.00 in 0 W/m2
01:43 54.7 °F 52.4 °F 29.73 in SW 7.0 mph 15.0 mph 92 % 0.00 in 0 W/m2
01:48 54.9 °F 52.6 °F 29.73 in SW 7.0 mph 15.0 mph 92 % 0.00 in 0 W/m2
01:54 55.0 °F 52.8 °F 29.72 in SW 7.0 mph 12.0 mph 92 % 0.00 in 0 W/m2
01:59 55.0 °F 52.8 °F 29.72 in SW 7.0 mph 12.0 mph 92 % 0.00 in 0 W/m2
02:04 55.2 °F 52.9 °F 29.73 in SW 8.0 mph 16.0 mph 92 % 0.00 in 0 W/m2
02:09 55.6 °F 53.3 °F 29.72 in SW 9.0 mph 18.0 mph 92 % 0.00 in 0 W/m2
02:14 55.6 °F 53.3 °F 29.73 in SW 9.0 mph 18.0 mph 92 % 0.00 in 0 W/m2
02:19 55.8 °F 53.2 °F 29.72 in WSW 7.0 mph 18.0 mph 91 % 0.00 in 0 W/m2
02:24 55.8 °F 53.2 °F 29.73 in WSW 6.0 mph 18.0 mph 91 % 0.00 in 0 W/m2
02:29 55.9 °F 53.4 °F 29.73 in WSW 7.0 mph 14.0 mph 91 % 0.00 in 0 W/m2
02:34 56.1 °F 53.5 °F 29.73 in WSW 9.0 mph 14.0 mph 91 % 0.00 in 0 W/m2
02:39 56.1 °F 53.5 °F 29.73 in WSW 9.0 mph 14.0 mph 91 % 0.00 in 0 W/m2
02:44 56.3 °F 53.7 °F 29.72 in WSW 8.0 mph 14.0 mph 91 % 0.00 in 0 W/m2
02:49 56.5 °F 53.9 °F 29.72 in WSW 7.0 mph 14.0 mph 91 % 0.00 in 0 W/m2
02:54 56.5 °F 53.9 °F 29.72 in WSW 7.0 mph 12.0 mph 91 % 0.00 in 0 W/m2
02:59 56.5 °F 53.9 °F 29.72 in WSW 7.0 mph 12.0 mph 91 % 0.00 in 0 W/m2
03:04 56.5 °F 53.9 °F 29.72 in WSW 5.0 mph 10.0 mph 91 % 0.00 in 0 W/m2
03:09 56.5 °F 53.9 °F 29.72 in West 4.0 mph 9.0 mph 91 % 0.00 in 0 W/m2
03:14 56.5 °F 53.9 °F 29.72 in West 4.0 mph 9.0 mph 91 % 0.00 in 0 W/m2
03:19 56.5 °F 53.9 °F 29.72 in West 5.0 mph 9.0 mph 91 % 0.00 in 0 W/m2
03:24 56.5 °F 53.9 °F 29.72 in West 4.0 mph 8.0 mph 91 % 0.00 in 0 W/m2
03:29 56.5 °F 53.9 °F 29.72 in West 3.0 mph 7.0 mph 91 % 0.00 in 0 W/m2
03:34 56.5 °F 53.9 °F 29.72 in West 2.0 mph 8.0 mph 91 % 0.00 in 0 W/m2
03:39 56.5 °F 53.9 °F 29.72 in West 1.0 mph 8.0 mph 91 % 0.00 in 0 W/m2
03:44 56.5 °F 53.9 °F 29.72 in Calm   3.0 mph 91 % 0.00 in 0 W/m2
03:49 56.5 °F 53.9 °F 29.71 in Calm   2.0 mph 91 % 0.00 in 0 W/m2
03:54 56.5 °F 53.9 °F 29.71 in NNE 1.0 mph 4.0 mph 91 % 0.00 in 0 W/m2
03:59 56.3 °F 54.0 °F 29.71 in NE 2.0 mph 5.0 mph 92 % 0.00 in 0 W/m2
04:04 56.5 °F 54.2 °F 29.71 in East 3.0 mph 7.0 mph 92 % 0.00 in 0 W/m2
04:09 56.5 °F 54.2 °F 29.71 in SE 3.0 mph 7.0 mph 92 % 0.00 in 0 W/m2
04:14 56.5 °F 54.2 °F 29.71 in SSE 3.0 mph 6.0 mph 92 % 0.00 in 0 W/m2
04:19 56.5 °F 54.2 °F 29.71 in SSE 2.0 mph 6.0 mph 92 % 0.00 in 0 W/m2
04:24 56.7 °F 54.4 °F 29.71 in South 3.0 mph 6.0 mph 92 % 0.00 in 0 W/m2
04:29 56.7 °F 54.4 °F 29.71 in South 4.0 mph 10.0 mph 92 % 0.00 in 0 W/m2
04:34 56.7 °F 54.4 °F 29.71 in South 4.0 mph 10.0 mph 92 % 0.00 in 0 W/m2
04:39 56.7 °F 54.4 °F 29.71 in SSE 4.0 mph 8.0 mph 92 % 0.00 in 0 W/m2
04:44 56.7 °F 54.4 °F 29.71 in SE 4.0 mph 8.0 mph 92 % 0.00 in 0 W/m2
04:49 56.8 °F 54.5 °F 29.71 in SSE 4.0 mph 7.0 mph 92 % 0.00 in 0 W/m2
04:54 56.8 °F 54.5 °F 29.71 in SSE 4.0 mph 8.0 mph 92 % 0.00 in 0 W/m2
04:59 56.8 °F 54.5 °F 29.70 in SSE 4.0 mph 8.0 mph 92 % 0.00 in 5 W/m2
05:04 56.8 °F 54.5 °F 29.71 in SSE 4.0 mph 12.0 mph 92 % 0.00 in 7 W/m2
05:10 57.0 °F 54.7 °F 29.70 in SW 5.0 mph 12.0 mph 92 % 0.00 in 7 W/m2
05:15 57.0 °F 54.7 °F 29.71 in SW 6.0 mph 12.0 mph 92 % 0.00 in 7 W/m2
05:20 57.0 °F 54.4 °F 29.70 in SW 6.0 mph 12.0 mph 91 % 0.00 in 7 W/m2
05:25 57.0 °F 54.4 °F 29.70 in SSW 5.0 mph 9.0 mph 91 % 0.00 in 9 W/m2
05:30 57.0 °F 54.7 °F 29.70 in SSW 5.0 mph 9.0 mph 92 % 0.00 in 11 W/m2
05:35 57.0 °F 54.7 °F 29.70 in SSW 5.0 mph 11.0 mph 92 % 0.00 in 16 W/m2
05:40 57.0 °F 54.7 °F 29.70 in SSW 5.0 mph 11.0 mph 92 % 0.00 in 19 W/m2
05:45 57.0 °F 54.7 °F 29.70 in South 5.0 mph 9.0 mph 92 % 0.00 in 25 W/m2
05:50 57.0 °F 54.7 °F 29.70 in South 4.0 mph 8.0 mph 92 % 0.00 in 28 W/m2
05:55 57.0 °F 54.7 °F 29.70 in SSE 3.0 mph 6.0 mph 92 % 0.00 in 28 W/m2
06:00 57.0 °F 54.7 °F 29.70 in SSE 3.0 mph 7.0 mph 92 % 0.00 in 25 W/m2
06:05 57.0 °F 54.7 °F 29.69 in SSE 3.0 mph 7.0 mph 92 % 0.00 in 21 W/m2
06:10 56.8 °F 54.8 °F 29.70 in SSE 3.0 mph 6.0 mph 93 % 0.00 in 19 W/m2
06:15 56.8 °F 54.8 °F 29.70 in South 4.0 mph 8.0 mph 93 % 0.00 in 23 W/m2
06:20 56.8 °F 54.8 °F 29.70 in South 4.0 mph 9.0 mph 93 % 0.01 in 26 W/m2
06:25 56.8 °F 54.8 °F 29.70 in South 4.0 mph 9.0 mph 93 % 0.01 in 23 W/m2
06:30 56.8 °F 54.8 °F 29.69 in South 5.0 mph 12.0 mph 93 % 0.01 in 21 W/m2
06:35 56.8 °F 54.8 °F 29.69 in SSW 5.0 mph 12.0 mph 93 % 0.01 in 21 W/m2
06:40 56.8 °F 54.8 °F 29.69 in South 5.0 mph 9.0 mph 93 % 0.02 in 46 W/m2
06:45 56.8 °F 54.8 °F 29.69 in South 4.0 mph 11.0 mph 93 % 0.02 in 51 W/m2
06:50 56.8 °F 55.1 °F 29.69 in SSW 4.0 mph 11.0 mph 94 % 0.02 in 67 W/m2
06:55 56.8 °F 55.1 °F 29.68 in SSW 4.0 mph 9.0 mph 94 % 0.02 in 72 W/m2
07:00 57.0 °F 55.3 °F 29.69 in South 2.0 mph 8.0 mph 94 % 0.02 in 51 W/m2
07:05 57.0 °F 55.3 °F 29.68 in South 3.0 mph 7.0 mph 94 % 0.02 in 49 W/m2
07:10 57.0 °F 55.3 °F 29.68 in South 3.0 mph 7.0 mph 94 % 0.02 in 42 W/m2
07:15 57.0 °F 55.3 °F 29.69 in South 3.0 mph 7.0 mph 94 % 0.02 in 58 W/m2
07:20 57.0 °F 55.3 °F 29.69 in South 4.0 mph 9.0 mph 94 % 0.02 in 49 W/m2
07:25 57.0 °F 55.3 °F 29.68 in South 5.0 mph 9.0 mph 94 % 0.02 in 46 W/m2
07:30 57.0 °F 55.3 °F 29.68 in South 5.0 mph 11.0 mph 94 % 0.02 in 56 W/m2
07:35 57.0 °F 55.3 °F 29.68 in SSW 6.0 mph 11.0 mph 94 % 0.02 in 76 W/m2
07:40 57.0 °F 55.3 °F 29.68 in SSW 6.0 mph 10.0 mph 94 % 0.02 in 100 W/m2
07:45 57.0 °F 55.3 °F 29.68 in SSW 7.0 mph 12.0 mph 94 % 0.02 in 116 W/m2
07:50 57.0 °F 55.3 °F 29.67 in South 7.0 mph 12.0 mph 94 % 0.02 in 118 W/m2
07:55 57.2 °F 55.5 °F 29.67 in South 6.0 mph 11.0 mph 94 % 0.02 in 107 W/m2
08:00 57.4 °F 55.7 °F 29.67 in SSW 6.0 mph 11.0 mph 94 % 0.02 in 114 W/m2
08:05 57.4 °F 55.7 °F 29.67 in South 7.0 mph 14.0 mph 94 % 0.02 in 158 W/m2
08:10 57.6 °F 55.8 °F 29.67 in South 8.0 mph 14.0 mph 94 % 0.02 in 127 W/m2
08:15 57.6 °F 55.6 °F 29.67 in South 8.0 mph 14.0 mph 93 % 0.02 in 139 W/m2
08:20 57.6 °F 55.6 °F 29.67 in South 9.0 mph 20.0 mph 93 % 0.02 in 153 W/m2
08:25 57.7 °F 55.4 °F 29.67 in SSW 10.0 mph 20.0 mph 92 % 0.02 in 149 W/m2
08:30 57.7 °F 55.4 °F 29.67 in SSW 9.0 mph 16.0 mph 92 % 0.01 in 167 W/m2
08:35 57.9 °F 55.6 °F 29.67 in SSW 8.0 mph 14.0 mph 92 % 0.01 in 223 W/m2
08:40 57.9 °F 55.6 °F 29.67 in SSW 7.0 mph 13.0 mph 92 % 0.01 in 216 W/m2
08:45 57.9 °F 55.6 °F 29.67 in SSW 9.0 mph 21.0 mph 92 % 0.01 in 253 W/m2
08:46 57.9 °F 55.6 °F 29.67 in SSW 9.0 mph 21.0 mph 92 % 0.01 in 253 W/m2
08:51 58.1 °F 55.8 °F 29.67 in SSW 10.0 mph 21.0 mph 92 % 0.01 in 255 W/m2
08:56 58.1 °F 55.8 °F 29.67 in SSW 9.0 mph 18.0 mph 92 % 0.01 in 162 W/m2
09:01 57.9 °F 55.3 °F 29.67 in SSW 9.0 mph 18.0 mph 91 % 0.00 in 127 W/m2
09:06 57.9 °F 55.3 °F 29.67 in SSW 10.0 mph 16.0 mph 91 % 0.00 in 95 W/m2
09:11 57.7 °F 55.1 °F 29.67 in SSW 9.0 mph 16.0 mph 91 % 0.00 in 104 W/m2
09:16 57.7 °F 55.1 °F 29.67 in SSW 9.0 mph 18.0 mph 91 % 0.00 in 160 W/m2
09:21 57.6 °F 55.0 °F 29.67 in SSW 11.0 mph 22.0 mph 91 % 0.00 in 176 W/m2
09:26 57.7 °F 55.4 °F 29.67 in SSW 10.0 mph 22.0 mph 92 % 0.00 in 130 W/m2
09:31 57.6 °F 55.3 °F 29.66 in SSW 8.0 mph 18.0 mph 92 % 0.00 in 188 W/m2
09:36 57.4 °F 55.1 °F 29.67 in SSW 10.0 mph 18.0 mph 92 % 0.00 in 98 W/m2
09:41 57.2 °F 54.6 °F 29.67 in SSW 11.0 mph 19.0 mph 91 % 0.00 in 123 W/m2
09:46 57.2 °F 54.9 °F 29.67 in SSW 10.0 mph 19.0 mph 92 % 0.00 in 120 W/m2
09:51 57.0 °F 54.7 °F 29.66 in SSW 8.0 mph 18.0 mph 92 % 0.00 in 134 W/m2
09:56 57.0 °F 54.7 °F 29.66 in SSW 9.0 mph 18.0 mph 92 % 0.00 in 125 W/m2
10:02 57.0 °F 54.7 °F 29.67 in SSW 10.0 mph 19.0 mph 92 % 0.00 in 125 W/m2
10:07 56.8 °F 54.5 °F 29.67 in SSW 11.0 mph 20.0 mph 92 % 0.00 in 121 W/m2
10:12 56.8 °F 54.5 °F 29.66 in South 11.0 mph 20.0 mph 92 % 0.00 in 132 W/m2
10:17 56.8 °F 54.2 °F 29.66 in SSW 11.0 mph 19.0 mph 91 % 0.00 in 151 W/m2
10:22 57.0 °F 54.7 °F 29.66 in SSW 10.0 mph 19.0 mph 92 % 0.00 in 167 W/m2
10:27 57.0 °F 54.4 °F 29.66 in South 10.0 mph 21.0 mph 91 % 0.00 in 121 W/m2
10:32 57.2 °F 54.6 °F 29.66 in SSW 11.0 mph 21.0 mph 91 % 0.00 in 163 W/m2
10:37 57.4 °F 54.8 °F 29.66 in SSW 11.0 mph 18.0 mph 91 % 0.00 in 190 W/m2
10:47 57.7 °F 54.8 °F 29.66 in SSW 11.0 mph 21.0 mph 90 % 0.00 in 262 W/m2
10:52 57.9 °F 55.0 °F 29.65 in SSW 12.0 mph 26.0 mph 90 % 0.00 in 216 W/m2
10:57 58.1 °F 54.9 °F 29.65 in SSW 13.0 mph 26.0 mph 89 % 0.00 in 207 W/m2
11:02 58.1 °F 54.6 °F 29.65 in SSW 14.0 mph 27.0 mph 88 % 0.00 in 186 W/m2
11:07 58.3 °F 55.1 °F 29.65 in SSW 14.0 mph 27.0 mph 89 % 0.00 in 207 W/m2
11:12 58.3 °F 54.7 °F 29.65 in SSW 14.0 mph 26.0 mph 88 % 0.00 in 232 W/m2
11:17 58.3 °F 54.7 °F 29.65 in SSW 14.0 mph 26.0 mph 88 % 0.00 in 392 W/m2
11:22 58.6 °F 55.1 °F 29.64 in SSW 12.0 mph 20.0 mph 88 % 0.00 in 415 W/m2
11:27 58.8 °F 55.3 °F 29.64 in SSW 12.0 mph 22.0 mph 88 % 0.00 in 237 W/m2
11:32 58.8 °F 55.3 °F 29.64 in South 12.0 mph 24.0 mph 88 % 0.00 in 264 W/m2
11:37 58.6 °F 55.1 °F 29.64 in South 13.0 mph 24.0 mph 88 % 0.00 in 243 W/m2
11:42 59.0 °F 55.4 °F 29.64 in South 11.0 mph 21.0 mph 88 % 0.00 in 274 W/m2
11:47 59.0 °F 55.1 °F 29.64 in South 10.0 mph 19.0 mph 87 % 0.00 in 156 W/m2
11:48 59.2 °F 55.3 °F 29.64 in South 10.0 mph 19.0 mph 87 % 0.00 in 156 W/m2
11:53 59.2 °F 55.3 °F 29.64 in South 10.0 mph 18.0 mph 87 % 0.00 in 183 W/m2
11:58 59.2 °F 55.3 °F 29.64 in SSW 10.0 mph 21.0 mph 87 % 0.00 in 195 W/m2
12:03 59.2 °F 55.0 °F 29.64 in SSW 11.0 mph 30.0 mph 86 % 0.00 in 146 W/m2
12:08 59.2 °F 55.0 °F 29.64 in SSW 12.0 mph 30.0 mph 86 % 0.00 in 104 W/m2
12:13 59.0 °F 54.8 °F 29.64 in SSW 14.0 mph 27.0 mph 86 % 0.00 in 81 W/m2
12:18 58.8 °F 54.6 °F 29.63 in SSW 14.0 mph 31.0 mph 86 % 0.00 in 130 W/m2
12:23 58.8 °F 55.3 °F 29.63 in SSW 12.0 mph 31.0 mph 88 % 0.00 in 197 W/m2
12:28 58.8 °F 55.3 °F 29.63 in South 11.0 mph 20.0 mph 88 % 0.00 in 376 W/m2
12:33 59.0 °F 55.8 °F 29.62 in South 11.0 mph 19.0 mph 89 % 0.01 in 401 W/m2
12:38 59.4 °F 56.1 °F 29.62 in South 11.0 mph 27.0 mph 89 % 0.01 in 343 W/m2
12:43 59.5 °F 56.3 °F 29.62 in South 12.0 mph 27.0 mph 89 % 0.01 in 146 W/m2
12:48 59.5 °F 56.3 °F 29.62 in SSW 11.0 mph 19.0 mph 89 % 0.01 in 104 W/m2
12:53 59.4 °F 55.8 °F 29.63 in SSW 11.0 mph 21.0 mph 88 % 0.01 in 98 W/m2
12:58 59.2 °F 55.6 °F 29.63 in SSW 11.0 mph 25.0 mph 88 % 0.01 in 120 W/m2
13:04 59.2 °F 55.6 °F 29.62 in SSW 11.0 mph 25.0 mph 88 % 0.01 in 214 W/m2
13:09 59.4 °F 55.8 °F 29.62 in SSW 11.0 mph 22.0 mph 88 % 0.01 in 158 W/m2
13:14 59.4 °F 55.8 °F 29.62 in SSW 12.0 mph 23.0 mph 88 % 0.01 in 267 W/m2
13:19 59.7 °F 55.8 °F 29.62 in SSW 14.0 mph 26.0 mph 87 % 0.01 in 455 W/m2
13:24 60.3 °F 56.4 °F 29.62 in SSW 14.0 mph 26.0 mph 87 % 0.01 in 680 W/m2
13:29 60.6 °F 56.4 °F 29.61 in SSW 14.0 mph 26.0 mph 86 % 0.01 in 330 W/m2
13:34 61.0 °F 56.4 °F 29.61 in SSW 16.0 mph 29.0 mph 85 % 0.00 in 626 W/m2
13:39 61.2 °F 56.3 °F 29.61 in SSW 16.0 mph 29.0 mph 84 % 0.00 in 308 W/m2
13:44 61.2 °F 56.3 °F 29.61 in SSW 15.0 mph 26.0 mph 84 % 0.00 in 294 W/m2
13:49 61.3 °F 56.5 °F 29.61 in SSW 13.0 mph 22.0 mph 84 % 0.00 in 320 W/m2
13:54 61.5 °F 56.6 °F 29.61 in SSW 11.0 mph 21.0 mph 84 % 0.00 in 318 W/m2
13:59 61.7 °F 56.5 °F 29.61 in SSW 11.0 mph 21.0 mph 83 % 0.00 in 371 W/m2
14:04 61.9 °F 56.7 °F 29.61 in SSW 13.0 mph 22.0 mph 83 % 0.00 in 501 W/m2
14:09 62.4 °F 56.9 °F 29.61 in SSW 13.0 mph 26.0 mph 82 % 0.00 in 541 W/m2
14:10 62.6 °F 57.0 °F 29.61 in SSW 13.0 mph 26.0 mph 82 % 0.00 in 541 W/m2
14:15 63.7 °F 57.7 °F 29.60 in SSW 14.0 mph 26.0 mph 81 % 0.00 in 1032 W/m2
14:20 64.4 °F 58.1 °F 29.61 in SW 15.0 mph 27.0 mph 80 % 0.00 in 893 W/m2
14:25 64.6 °F 57.6 °F 29.60 in SW 15.0 mph 28.0 mph 78 % 0.00 in 336 W/m2
14:30 64.2 °F 57.2 °F 29.60 in SSW 15.0 mph 28.0 mph 78 % 0.00 in 401 W/m2
14:31 64.2 °F 57.2 °F 29.60 in SSW 15.0 mph 28.0 mph 78 % 0.00 in 401 W/m2
14:36 64.4 °F 57.0 °F 29.60 in SSW 16.0 mph 24.0 mph 77 % 0.00 in 446 W/m2
14:41 64.9 °F 57.6 °F 29.60 in SSW 16.0 mph 25.0 mph 77 % 0.00 in 1032 W/m2
14:42 65.1 °F 58.1 °F 29.60 in SSW 16.0 mph 25.0 mph 78 % 0.00 in 1032 W/m2
14:47 65.7 °F 57.9 °F 29.60 in SSW 15.0 mph 32.0 mph 76 % 0.00 in 803 W/m2
14:52 65.7 °F 57.9 °F 29.60 in SSW 16.0 mph 32.0 mph 76 % 0.00 in 380 W/m2
14:57 66.0 °F 57.9 °F 29.59 in SW 16.0 mph 25.0 mph 75 % 0.00 in 988 W/m2
15:02 66.0 °F 57.5 °F 29.59 in SSW 16.0 mph 30.0 mph 74 % 0.00 in 352 W/m2
15:07 65.7 °F 57.1 °F 29.59 in SSW 17.0 mph 30.0 mph 74 % 0.00 in 272 W/m2
15:12 66.0 °F 57.9 °F 29.59 in SSW 17.0 mph 28.0 mph 75 % 0.00 in 264 W/m2
15:17 66.2 °F 57.7 °F 29.59 in SSW 16.0 mph 28.0 mph 74 % 0.00 in 248 W/m2
15:23 65.8 °F 57.7 °F 29.59 in SW 15.0 mph 25.0 mph 75 % 0.00 in 315 W/m2
15:28 65.7 °F 57.5 °F 29.59 in SW 15.0 mph 25.0 mph 75 % 0.00 in 258 W/m2
15:33 65.3 °F 57.5 °F 29.59 in SW 14.0 mph 25.0 mph 76 % 0.00 in 237 W/m2
15:35 65.3 °F 57.5 °F 29.59 in SSW 14.0 mph 25.0 mph 76 % 0.00 in 276 W/m2
15:40 65.7 °F 57.9 °F 29.59 in SSW 13.0 mph 24.0 mph 76 % 0.00 in 276 W/m2
15:45 66.2 °F 57.3 °F 29.59 in SSW 14.0 mph 27.0 mph 73 % 0.00 in 297 W/m2
15:50 66.2 °F 57.3 °F 29.59 in SSW 16.0 mph 27.0 mph 73 % 0.00 in 167 W/m2
15:55 66.0 °F 57.5 °F 29.59 in SW 14.0 mph 26.0 mph 74 % 0.00 in 230 W/m2
16:00 66.0 °F 57.5 °F 29.59 in SW 15.0 mph 29.0 mph 74 % 0.00 in 432 W/m2
16:05 65.8 °F 57.3 °F 29.59 in SW 16.0 mph 29.0 mph 74 % 0.00 in 308 W/m2
16:10 66.4 °F 57.8 °F 29.58 in SW 15.0 mph 27.0 mph 74 % 0.00 in 749 W/m2
16:15 66.9 °F 58.4 °F 29.59 in SW 13.0 mph 26.0 mph 74 % 0.00 in 229 W/m2
16:20 66.9 °F 57.6 °F 29.58 in SW 13.0 mph 33.0 mph 72 % 0.00 in 163 W/m2
16:25 66.9 °F 57.6 °F 29.58 in SW 14.0 mph 33.0 mph 72 % 0.00 in 780 W/m2
16:30 67.3 °F 57.2 °F 29.58 in SSW 17.0 mph 27.0 mph 70 % 0.00 in 200 W/m2
16:35 66.9 °F 56.8 °F 29.58 in SSW 19.0 mph 27.0 mph 70 % 0.00 in 200 W/m2
16:40 66.9 °F 57.2 °F 29.58 in SSW 17.0 mph 28.0 mph 71 % 0.00 in 796 W/m2
16:41 66.9 °F 57.2 °F 29.58 in SSW 17.0 mph 28.0 mph 71 % 0.00 in 796 W/m2
16:46 67.1 °F 57.8 °F 29.58 in SSW 15.0 mph 28.0 mph 72 % 0.00 in 225 W/m2
16:51 66.9 °F 58.0 °F 29.58 in SSW 15.0 mph 29.0 mph 73 % 0.00 in 650 W/m2
16:56 66.9 °F 58.0 °F 29.58 in SSW 15.0 mph 29.0 mph 73 % 0.00 in 128 W/m2
17:01 66.6 °F 57.6 °F 29.57 in SW 13.0 mph 23.0 mph 73 % 0.00 in 213 W/m2
17:06 66.6 °F 58.4 °F 29.57 in SW 11.0 mph 20.0 mph 75 % 0.00 in 348 W/m2
17:11 66.7 °F 57.8 °F 29.58 in SW 13.0 mph 23.0 mph 73 % 0.00 in 246 W/m2
17:16 66.7 °F 57.4 °F 29.58 in SW 15.0 mph 25.0 mph 72 % 0.00 in 162 W/m2
17:21 66.2 °F 57.3 °F 29.58 in SW 15.0 mph 25.0 mph 73 % 0.00 in 260 W/m2
17:26 66.0 °F 57.1 °F 29.58 in SW 16.0 mph 28.0 mph 73 % 0.00 in 640 W/m2
17:31 66.6 °F 57.6 °F 29.57 in SW 15.0 mph 28.0 mph 73 % 0.00 in 559 W/m2
17:36 67.1 °F 57.8 °F 29.57 in SW 13.0 mph 24.0 mph 72 % 0.00 in 566 W/m2
17:41 66.9 °F 57.2 °F 29.57 in SW 15.0 mph 27.0 mph 71 % 0.00 in 179 W/m2
17:46 66.4 °F 56.7 °F 29.57 in SW 17.0 mph 27.0 mph 71 % 0.00 in 91 W/m2
17:51 66.4 °F 57.1 °F 29.58 in SW 15.0 mph 26.0 mph 72 % 0.00 in 476 W/m2
17:56 66.7 °F 57.0 °F 29.58 in SW 13.0 mph 28.0 mph 71 % 0.00 in 445 W/m2
18:01 67.1 °F 56.6 °F 29.58 in SW 15.0 mph 29.0 mph 69 % 0.00 in 438 W/m2
18:06 67.3 °F 56.4 °F 29.57 in SW 17.0 mph 32.0 mph 68 % 0.00 in 450 W/m2
18:11 67.5 °F 56.5 °F 29.57 in SW 16.0 mph 32.0 mph 68 % 0.00 in 475 W/m2
18:16 67.5 °F 56.5 °F 29.57 in SW 14.0 mph 28.0 mph 68 % 0.00 in 146 W/m2
18:21 67.3 °F 56.4 °F 29.57 in SW 13.0 mph 22.0 mph 68 % 0.00 in 388 W/m2
18:27 67.3 °F 53.8 °F 29.57 in WSW 14.0 mph 25.0 mph 62 % 0.00 in 111 W/m2
18:32 66.9 °F 53.5 °F 29.58 in WSW 17.0 mph 27.0 mph 62 % 0.00 in 91 W/m2
18:37 66.6 °F 53.6 °F 29.58 in SW 16.0 mph 27.0 mph 63 % 0.00 in 47 W/m2
18:42 66.0 °F 53.5 °F 29.58 in SW 14.0 mph 26.0 mph 64 % 0.00 in 70 W/m2
18:47 65.7 °F 53.6 °F 29.58 in SW 14.0 mph 27.0 mph 65 % 0.00 in 88 W/m2
18:52 65.5 °F 53.0 °F 29.58 in SW 14.0 mph 27.0 mph 64 % 0.00 in 107 W/m2
18:57 65.5 °F 53.8 °F 29.59 in SW 12.0 mph 23.0 mph 66 % 0.00 in 76 W/m2
19:02 65.1 °F 53.5 °F 29.59 in WSW 12.0 mph 22.0 mph 66 % 0.00 in 63 W/m2
19:07 64.9 °F 53.3 °F 29.59 in WSW 13.0 mph 22.0 mph 66 % 0.00 in 102 W/m2
19:12 64.6 °F 53.8 °F 29.59 in West 12.0 mph 20.0 mph 68 % 0.00 in 121 W/m2
19:17 64.0 °F 53.7 °F 29.60 in West 13.0 mph 21.0 mph 69 % 0.00 in 299 W/m2
19:22 63.9 °F 53.9 °F 29.59 in West 12.0 mph 21.0 mph 70 % 0.00 in 40 W/m2
19:27 63.5 °F 53.9 °F 29.60 in West 11.0 mph 20.0 mph 71 % 0.00 in 62 W/m2
19:32 63.1 °F 54.3 °F 29.60 in West 11.0 mph 20.0 mph 73 % 0.00 in 77 W/m2
19:37 63.0 °F 54.5 °F 29.60 in West 11.0 mph 20.0 mph 74 % 0.00 in 79 W/m2
19:42 62.8 °F 54.4 °F 29.60 in West 11.0 mph 22.0 mph 74 % 0.00 in 37 W/m2
19:47 62.4 °F 54.0 °F 29.60 in WSW 11.0 mph 22.0 mph 74 % 0.00 in 83 W/m2
19:52 62.4 °F 54.4 °F 29.60 in WSW 10.0 mph 20.0 mph 75 % 0.00 in 153 W/m2
19:57 62.4 °F 54.8 °F 29.60 in WSW 10.0 mph 19.0 mph 76 % 0.00 in 65 W/m2
20:02 62.4 °F 54.8 °F 29.60 in WSW 10.0 mph 18.0 mph 76 % 0.00 in 79 W/m2
20:07 62.2 °F 54.6 °F 29.61 in WSW 10.0 mph 18.0 mph 76 % 0.00 in 63 W/m2
20:12 62.2 °F 54.6 °F 29.60 in WSW 9.0 mph 16.0 mph 76 % 0.00 in 35 W/m2
20:17 62.1 °F 54.4 °F 29.60 in WSW 11.0 mph 18.0 mph 76 % 0.00 in 21 W/m2
20:22 61.9 °F 54.2 °F 29.60 in WSW 11.0 mph 18.0 mph 76 % 0.00 in 23 W/m2
20:27 61.7 °F 54.4 °F 29.61 in SW 10.0 mph 16.0 mph 77 % 0.00 in 18 W/m2
20:32 61.5 °F 54.2 °F 29.61 in WSW 10.0 mph 16.0 mph 77 % 0.00 in 18 W/m2
20:37 61.3 °F 54.1 °F 29.61 in WSW 9.0 mph 16.0 mph 77 % 0.00 in 23 W/m2
20:42 61.3 °F 54.1 °F 29.62 in WSW 9.0 mph 15.0 mph 77 % 0.00 in 54 W/m2
20:48 61.3 °F 54.4 °F 29.62 in WSW 10.0 mph 19.0 mph 78 % 0.00 in 60 W/m2
20:53 61.2 °F 54.2 °F 29.62 in SW 10.0 mph 19.0 mph 78 % 0.00 in 58 W/m2
20:58 60.8 °F 53.9 °F 29.62 in WSW 9.0 mph 18.0 mph 78 % 0.00 in 25 W/m2
21:03 60.4 °F 53.5 °F 29.62 in SW 9.0 mph 18.0 mph 78 % 0.00 in 14 W/m2
21:08 60.3 °F 53.4 °F 29.62 in SW 9.0 mph 16.0 mph 78 % 0.00 in 12 W/m2
21:13 60.1 °F 53.2 °F 29.62 in SW 9.0 mph 16.0 mph 78 % 0.00 in 18 W/m2
21:18 59.7 °F 52.8 °F 29.62 in SW 8.0 mph 14.0 mph 78 % 0.00 in 9 W/m2
21:23 59.5 °F 53.0 °F 29.63 in WSW 8.0 mph 15.0 mph 79 % 0.00 in 9 W/m2
21:28 59.4 °F 52.8 °F 29.63 in SW 8.0 mph 15.0 mph 79 % 0.00 in 7 W/m2
21:33 59.2 °F 53.0 °F 29.63 in SW 8.0 mph 14.0 mph 80 % 0.00 in 0 W/m2
21:38 59.2 °F 53.0 °F 29.63 in WSW 8.0 mph 14.0 mph 80 % 0.00 in 0 W/m2
21:43 59.2 °F 53.0 °F 29.63 in SW 8.0 mph 13.0 mph 80 % 0.00 in 0 W/m2
21:48 59.0 °F 53.2 °F 29.63 in WSW 9.0 mph 18.0 mph 81 % 0.00 in 0 W/m2
21:53 58.8 °F 53.0 °F 29.64 in WSW 10.0 mph 18.0 mph 81 % 0.00 in 0 W/m2
21:58 58.6 °F 52.8 °F 29.64 in WSW 9.0 mph 14.0 mph 81 % 0.00 in 0 W/m2
22:03 58.6 °F 53.2 °F 29.64 in WSW 8.0 mph 14.0 mph 82 % 0.00 in 0 W/m2
22:08 58.5 °F 53.0 °F 29.64 in SW 6.0 mph 11.0 mph 82 % 0.00 in 0 W/m2
22:13 58.3 °F 53.1 °F 29.64 in SW 5.0 mph 11.0 mph 83 % 0.00 in 0 W/m2
22:18 57.9 °F 53.1 °F 29.64 in SW 5.0 mph 10.0 mph 84 % 0.00 in 0 W/m2
22:23 57.7 °F 52.9 °F 29.63 in SW 6.0 mph 12.0 mph 84 % 0.00 in 0 W/m2
22:28 57.6 °F 52.8 °F 29.64 in SW 7.0 mph 12.0 mph 84 % 0.00 in 0 W/m2
22:33 57.6 °F 53.1 °F 29.64 in SW 7.0 mph 12.0 mph 85 % 0.00 in 0 W/m2
22:38 57.6 °F 52.8 °F 29.64 in SW 8.0 mph 15.0 mph 84 % 0.00 in 0 W/m2
22:43 57.6 °F 52.8 °F 29.64 in SW 8.0 mph 15.0 mph 84 % 0.00 in 0 W/m2
22:48 57.4 °F 52.6 °F 29.64 in SW 7.0 mph 14.0 mph 84 % 0.00 in 0 W/m2
22:54 57.4 °F 52.6 °F 29.64 in SW 7.0 mph 13.0 mph 84 % 0.00 in 0 W/m2
22:58 57.0 °F 52.2 °F 29.64 in SW 7.0 mph 12.0 mph 84 % 0.00 in 0 W/m2
23:03 57.0 °F 52.2 °F 29.64 in SW 7.0 mph 12.0 mph 84 % 0.00 in 0 W/m2
23:08 56.8 °F 51.7 °F 29.64 in SW 7.0 mph 12.0 mph 83 % 0.00 in 0 W/m2
23:14 56.8 °F 51.7 °F 29.64 in SW 7.0 mph 11.0 mph 83 % 0.00 in 0 W/m2
23:19 56.7 °F 51.9 °F 29.64 in SW 6.0 mph 10.0 mph 84 % 0.00 in 0 W/m2
23:28 56.3 °F 51.5 °F 29.64 in SSW 5.0 mph 8.0 mph 84 % 0.00 in 0 W/m2
23:34 56.1 °F 51.7 °F 29.64 in SSW 5.0 mph 8.0 mph 85 % 0.00 in 0 W/m2
23:39 55.9 °F 51.5 °F 29.64 in SSW 4.0 mph 8.0 mph 85 % 0.00 in 0 W/m2
23:44 55.8 °F 51.3 °F 29.64 in SSW 5.0 mph 9.0 mph 85 % 0.00 in 0 W/m2
23:49 55.6 °F 51.1 °F 29.64 in SW 6.0 mph 9.0 mph 85 % 0.00 in 0 W/m2
23:54 55.6 °F 50.8 °F 29.64 in SW 6.0 mph 9.0 mph 84 % 0.00 in 0 W/m2
23:59 55.6 °F 50.8 °F 29.64 in SSW 7.0 mph 12.0 mph 84 % 0.00 in 0 W/m2
Delerius-Weather
Compliments of Weather Underground - 2.25 mb

Data updates at regular intervals.